Airfield :







YOU CAN JOIN US ON...

 
LOGIN :

Register | Disclaimer

   EN    FR    IT 

 









Legend :    VFR   Marginal VFR   IFR   Intensive IFR   Very Intensive IFR
Visi :
Ceiling :
>= 8 km
>= 3000ft
5 to 8 km
1000 to 3000 ft
1500m to 5 km
500 to 1000 ft
800 to 1500m
200 to 500 ft
< 800m
< 200 ft
Symbols :   Thunderstorms  Fog  Heavy snow  Heavy precipitations  Wind > 20 kt






- Airport Elevation : 199 ft
- IATA code : YRQ


CYRQ - Trois-Rivières

CURRENT METAR :
  • 151200Z AUTO 25013G25KT 9SM SCT034 BKN041 BKN160 OVC180 00/M04 A2912 RMK PRESRR SLP864

EXPIRED METARs :
  • 151110Z AUTO 24012G19KT 9SM SCT032 BKN039 OVC046 01/M01 A2906 RMK SLP844
  • 151100Z AUTO 24010G20KT 9SM -SN FEW025 BKN036 OVC043 01/M01 A2905 RMK PRESRR SLP842
  • 151021Z AUTO 25012G20KT 6SM -SN FEW010 SCT018 OVC027 01/M01 A2901 RMK ICG PAST HR PRESRR SLP826
  • 151015Z AUTO 25012G20KT 220V290 3SM -SN FEW008 SCT014 OVC019 01/M00 A2900 RMK ICG PAST HR PRESRR SLP823
  • 151002Z AUTO 25010G25KT 1 3/4SM -SN SCT006 SCT010 BKN015 OVC020 01/00 A2898 RMK ICG INTMT PRESRR SLP817
  • 150929Z AUTO 24016G22KT 3SM -SN OVC006 01/00 A2893 RMK ICG PAST HR PRESRR SLP802

TAF AMD TAF CYRQ
Valid from the 15 at 08:00 until the 15 at 20:00 UTC


150813Z 1508/1520 20017G27KT 1SM -SN BKN004 OVC012
TEMPO 1508/1510 4SM -SN OVC012
FM151000 23015G25KT 2SM -SN OVC015
TEMPO 1510/1512 6SM -SN OVC030
FM151200 26017G27KT 6SM -SN OVC030
TEMPO 1512/1520 3SM -SN OVC015
BECMG 1516/1518 27012G22KT RMK FCST BASED ON AUTO OBS. NXT FCST BY 151400Z



MET'MAP, your aeronautical weather chart ! - Copyright ORBIFLY December 2007 - Disclaimer

ORBIFLY MET'MAP TEAM :

Programming & Development : Alexandra Zaïnal
Concept & original design : Baudouin d'Aumeries
Assistance for programming : Marc-Olivier Méhu
Technical & hardware support : Manuel Goepfert

Contact : metmap@orbifly.com




SOURCES & CREDITS :

   NOAA